Time;durP1;ratioP1;P1;durP2;ratioP2;P2;SDS_P1;SDS_P2;PMS_P1;PMS_P2;Temp;Humidity;BMP_temperature;BMP_pressure;BME280_temperature;BME280_humidity;BME280_pressure;Samples;Min_cycle;Max_cycle;Signal;HPM_P1;HPM_P2
2022/09/10 00:01:47;;;;;;;5.70;4.60;;;;;;;15.48;87.91;96436.03;107925;1270;22538;-78
2022/09/10 00:04:18;;;;;;;7.20;4.60;;;;;;;15.55;87.66;96441.16;107942;1271;25226;-78
2022/09/10 00:06:49;;;;;;;8.30;4.20;;;;;;;15.58;87.56;96441.25;107970;1271;22540;-78
2022/09/10 00:09:20;;;;;;;5.60;4.30;;;;;;;15.61;87.39;96435.64;107864;1271;35425;-78
2022/09/10 00:11:51;;;;;;;5.40;4.40;;;;;;;15.62;87.48;96434.55;107953;1271;22748;-78
2022/09/10 00:14:24;;;;;;;5.00;4.40;;;;;;;15.62;87.35;96426.05;107963;1271;22524;-78
2022/09/10 00:16:55;;;;;;;6.20;4.40;;;;;;;15.64;87.20;96421.92;107961;1270;24181;-78
2022/09/10 00:19:27;;;;;;;5.60;4.10;;;;;;;15.64;87.06;96421.23;107856;1271;23490;-78
2022/09/10 00:21:58;;;;;;;7.00;4.40;;;;;;;15.63;87.12;96423.41;107978;1270;22521;-78
2022/09/10 00:24:29;;;;;;;6.00;4.50;;;;;;;15.62;87.29;96429.96;107834;1270;22533;-78
2022/09/10 00:27:00;;;;;;;5.80;4.80;;;;;;;15.58;87.20;96429.71;107957;1271;22531;-78
2022/09/10 00:29:31;;;;;;;5.70;4.50;;;;;;;15.58;87.23;96436.78;107863;1271;28097;-78
2022/09/10 00:32:03;;;;;;;5.70;4.90;;;;;;;15.57;87.28;96436.60;107966;1270;22522;-78
2022/09/10 00:34:35;;;;;;;5.90;4.80;;;;;;;15.58;87.49;96437.48;107931;1271;25348;-78
2022/09/10 00:37:06;;;;;;;7.80;5.20;;;;;;;15.60;87.51;96437.98;107969;1271;22565;-78
2022/09/10 00:39:36;;;;;;;6.40;5.50;;;;;;;15.62;87.50;96434.34;107788;1271;29210;-78
2022/09/10 00:42:10;;;;;;;6.50;5.30;;;;;;;15.62;87.60;96442.66;107985;1271;23009;-78
2022/09/10 00:45:04;;;;;;;6.80;5.20;;;;;;;15.60;87.54;96443.48;107902;1271;22862;-78
2022/09/10 00:47:38;;;;;;;6.90;5.20;;;;;;;15.60;87.62;96449.13;108008;1271;22790;-78
2022/09/10 00:50:19;;;;;;;6.50;5.00;;;;;;;15.60;87.68;96451.87;107890;1271;37017;-78
2022/09/10 00:52:51;;;;;;;8.10;5.60;;;;;;;15.58;87.77;96454.20;107932;1270;25238;-78
2022/09/10 00:55:23;;;;;;;7.50;5.90;;;;;;;15.55;87.83;96453.17;107971;1271;22564;-78
2022/09/10 00:57:59;;;;;;;5.70;4.90;;;;;;;15.51;87.85;96452.77;107910;1271;25465;-78
2022/09/10 01:00:30;;;;;;;5.60;5.00;;;;;;;15.45;87.97;96455.16;107843;1271;38093;-78
2022/09/10 01:03:02;;;;;;;5.70;5.10;;;;;;;15.44;88.16;96457.55;107894;1271;22522;-77
2022/09/10 01:05:34;;;;;;;6.10;4.90;;;;;;;15.46;88.26;96459.94;107906;1271;22533;-78
2022/09/10 01:08:06;;;;;;;6.50;5.30;;;;;;;15.44;88.29;96457.55;107920;1271;22550;-78
2022/09/10 01:10:45;;;;;;;6.90;5.50;;;;;;;15.36;88.38;96454.54;107856;1271;28605;-78
2022/09/10 01:13:38;;;;;;;7.50;5.40;;;;;;;15.30;88.72;96458.22;107853;1270;25480;-78
2022/09/10 01:16:21;;;;;;;6.40;5.00;;;;;;;15.26;89.10;96452.86;107867;1271;25204;-78
2022/09/10 01:19:06;;;;;;;6.70;5.40;;;;;;;15.26;89.39;96451.38;107822;1271;29211;-77
2022/09/10 01:21:45;;;;;;;7.00;5.60;;;;;;;15.25;89.68;96451.44;107885;1271;25329;-77
2022/09/10 01:24:34;;;;;;;6.80;5.30;;;;;;;15.28;89.90;96448.70;107851;1271;22560;-77
2022/09/10 01:27:32;;;;;;;6.90;5.50;;;;;;;15.28;90.00;96448.42;107902;1271;22525;-78
2022/09/10 01:30:11;;;;;;;5.50;5.00;;;;;;;15.31;89.89;96444.14;107831;1271;27435;-78
2022/09/10 01:32:51;;;;;;;6.60;5.30;;;;;;;15.34;89.73;96444.17;107901;1271;25592;-78
2022/09/10 01:35:29;;;;;;;5.80;4.90;;;;;;;15.35;89.86;96440.15;107873;1271;22569;-78
2022/09/10 01:38:04;;;;;;;5.80;4.40;;;;;;;15.32;90.04;96437.70;107897;1271;25527;-78
2022/09/10 01:40:37;;;;;;;6.60;5.20;;;;;;;15.25;90.22;96433.55;107804;1270;31640;-77
2022/09/10 01:43:10;;;;;;;7.10;4.90;;;;;;;15.16;90.51;96434.01;107870;1271;22568;-77
2022/09/10 01:45:51;;;;;;;5.40;4.90;;;;;;;15.11;91.03;96432.65;107908;1271;23852;-77
2022/09/10 01:48:35;;;;;;;6.20;4.90;;;;;;;15.10;91.11;96428.63;107798;1271;31700;-77
2022/09/10 01:51:10;;;;;;;6.10;4.90;;;;;;;15.12;91.14;96429.79;107874;1271;22542;-78
2022/09/10 01:53:55;;;;;;;5.90;4.40;;;;;;;15.15;91.30;96429.52;107846;1271;23318;-77
2022/09/10 01:56:41;;;;;;;6.40;4.30;;;;;;;15.20;91.19;96429.30;107860;1271;23692;-77
2022/09/10 01:59:23;;;;;;;6.40;4.40;;;;;;;15.23;91.10;96428.69;107771;1270;24658;-77
2022/09/10 02:02:01;;;;;;;5.90;4.30;;;;;;;15.27;90.97;96426.17;107873;1271;22538;-77
2022/09/10 02:04:34;;;;;;;4.50;3.90;;;;;;;15.29;90.69;96422.62;107878;1271;22562;-77
2022/09/10 02:07:07;;;;;;;5.20;3.80;;;;;;;15.34;90.72;96420.56;107847;1271;22617;-77
2022/09/10 02:09:38;;;;;;;4.30;3.70;;;;;;;15.39;90.76;96412.86;107860;1271;33167;-77
2022/09/10 02:12:11;;;;;;;5.40;3.90;;;;;;;15.42;90.59;96406.86;107860;1271;22543;-77
2022/09/10 02:14:42;;;;;;;5.40;4.70;;;;;;;15.40;90.30;96399.92;107929;1271;26430;-78
2022/09/10 02:17:14;;;;;;;6.00;4.60;;;;;;;15.30;90.31;96398.56;107871;1271;24211;-77
2022/09/10 02:19:47;;;;;;;6.20;4.50;;;;;;;15.26;90.43;96391.20;107790;1271;29549;-77
2022/09/10 02:22:18;;;;;;;4.90;4.40;;;;;;;15.29;90.74;96390.23;107908;1271;22537;-78
2022/09/10 02:24:50;;;;;;;5.60;4.80;;;;;;;15.28;90.67;96384.27;107932;1271;22543;-78
2022/09/10 02:27:22;;;;;;;4.60;4.10;;;;;;;15.30;90.84;96388.75;107864;1269;22576;-77
2022/09/10 02:29:54;;;;;;;5.90;4.40;;;;;;;15.29;90.71;96396.80;107839;1271;29326;-77
2022/09/10 02:32:25;;;;;;;5.00;4.30;;;;;;;15.21;90.81;96390.19;107877;1271;24136;-77
2022/09/10 02:34:57;;;;;;;7.80;5.20;;;;;;;15.17;90.90;96385.72;107858;1269;25392;-77
2022/09/10 02:37:28;;;;;;;6.00;5.20;;;;;;;15.14;90.97;96377.30;107838;1271;22549;-77
2022/09/10 02:39:59;;;;;;;7.50;5.00;;;;;;;15.14;90.90;96374.57;107823;1271;25249;-78
2022/09/10 02:42:32;;;;;;;5.60;4.90;;;;;;;15.18;91.04;96367.91;107938;1271;22536;-78
2022/09/10 02:45:03;;;;;;;5.40;4.80;;;;;;;15.21;91.09;96363.87;107905;1271;22550;-77
2022/09/10 02:47:34;;;;;;;5.90;5.00;;;;;;;15.17;90.83;96368.31;107884;1270;22551;-78
2022/09/10 02:50:07;;;;;;;7.40;5.50;;;;;;;15.12;90.89;96373.75;107844;1270;34126;-77
2022/09/10 02:52:38;;;;;;;5.10;4.40;;;;;;;15.12;91.09;96375.70;107958;1271;24227;-78
2022/09/10 02:55:11;;;;;;;5.20;4.50;;;;;;;15.10;91.07;96374.67;107903;1270;24276;-78
2022/09/10 02:57:42;;;;;;;6.80;4.90;;;;;;;15.09;91.14;96375.61;107958;1270;22522;-78
2022/09/10 03:00:18;;;;;;;5.60;5.10;;;;;;;15.09;91.32;96376.55;107862;1270;26746;-77
2022/09/10 03:02:49;;;;;;;5.30;4.10;;;;;;;15.11;91.34;96386.10;107904;1271;25398;-77
2022/09/10 03:05:20;;;;;;;5.70;4.20;;;;;;;15.13;91.34;96384.34;107929;1271;22554;-78
2022/09/10 03:07:52;;;;;;;3.70;3.10;;;;;;;15.12;91.46;96381.17;107881;1270;25441;-77
2022/09/10 03:10:23;;;;;;;3.60;3.30;;;;;;;15.11;91.33;96379.13;107806;1269;29562;-77
2022/09/10 03:12:55;;;;;;;3.00;2.50;;;;;;;15.08;91.43;96383.05;107970;1271;22543;-77
2022/09/10 03:15:27;;;;;;;3.80;2.70;;;;;;;15.01;91.20;96386.30;107943;1271;22553;-78
2022/09/10 03:17:58;;;;;;;3.30;2.50;;;;;;;14.95;91.38;96385.27;107946;1271;22548;-77
2022/09/10 03:20:30;;;;;;;3.30;3.00;;;;;;;14.98;91.52;96386.55;107834;1270;23542;-78
2022/09/10 03:23:02;;;;;;;3.20;2.90;;;;;;;14.96;91.37;96389.06;107930;1271;24297;-78
2022/09/10 03:25:34;;;;;;;2.90;2.70;;;;;;;14.76;91.18;96387.63;107924;1270;22521;-78
2022/09/10 03:28:05;;;;;;;3.90;2.90;;;;;;;14.69;91.67;96388.33;107876;1270;22556;-78
2022/09/10 03:30:37;;;;;;;4.10;3.30;;;;;;;14.71;92.05;96383.88;107865;1271;26863;-77
2022/09/10 03:33:10;;;;;;;3.70;2.90;;;;;;;14.77;92.25;96378.12;107869;1270;22561;-78
2022/09/10 03:35:41;;;;;;;3.00;2.70;;;;;;;14.82;92.28;96383.54;107930;1271;22526;-77
2022/09/10 03:38:12;;;;;;;3.80;3.20;;;;;;;14.82;92.28;96386.95;107866;1270;22535;-78
2022/09/10 03:40:44;;;;;;;3.80;3.30;;;;;;;14.79;92.25;96389.34;107878;1271;33315;-78
2022/09/10 03:43:15;;;;;;;5.90;3.50;;;;;;;14.81;92.35;96386.39;107918;1270;22543;-78
2022/09/10 03:45:47;;;;;;;4.80;3.10;;;;;;;14.80;92.45;96387.58;107882;1271;22529;-78
2022/09/10 03:48:19;;;;;;;3.10;2.80;;;;;;;14.83;92.44;96386.96;107845;1271;29308;-77
2022/09/10 03:50:51;;;;;;;3.40;2.90;;;;;;;14.88;92.53;96386.14;107906;1271;22526;-78
2022/09/10 03:53:22;;;;;;;4.80;3.30;;;;;;;14.90;92.66;96396.16;107873;1270;22556;-78
2022/09/10 03:55:54;;;;;;;4.30;3.70;;;;;;;14.83;92.29;96398.02;107929;1270;22655;-78
2022/09/10 03:58:27;;;;;;;6.30;4.20;;;;;;;14.80;92.44;96392.77;107846;1270;32222;-77
2022/09/10 04:00:58;;;;;;;6.10;4.50;;;;;;;14.78;92.38;96392.34;107921;1270;22566;-78
2022/09/10 04:03:29;;;;;;;6.40;3.80;;;;;;;14.74;92.43;96390.94;107853;1270;25311;-78
2022/09/10 04:06:01;;;;;;;4.10;3.00;;;;;;;14.74;92.58;96389.62;107884;1270;23689;-78
2022/09/10 04:08:32;;;;;;;3.60;3.30;;;;;;;14.72;92.63;96391.82;107845;1270;29902;-78
2022/09/10 04:11:05;;;;;;;6.10;3.70;;;;;;;14.69;92.68;96390.88;107892;1270;24277;-77
2022/09/10 04:13:37;;;;;;;3.50;3.10;;;;;;;14.64;92.70;96389.31;107914;1271;24478;-78
2022/09/10 04:16:08;;;;;;;4.40;3.60;;;;;;;14.62;92.89;96387.98;107898;1270;22537;-78
2022/09/10 04:18:42;;;;;;;4.70;3.80;;;;;;;14.59;92.99;96387.45;107808;1270;30220;-77
2022/09/10 04:21:13;;;;;;;5.70;4.60;;;;;;;14.50;93.10;96387.88;107941;1271;22730;-78
2022/09/10 04:23:46;;;;;;;6.40;5.30;;;;;;;14.40;93.21;96390.30;107916;1269;22538;-78
2022/09/10 04:26:19;;;;;;;4.80;3.40;;;;;;;14.29;93.54;96386.77;107900;1270;22546;-78
2022/09/10 04:28:51;;;;;;;4.60;3.20;;;;;;;14.19;93.82;96381.63;107804;1270;26541;-77
2022/09/10 04:31:22;;;;;;;4.50;3.60;;;;;;;14.11;94.32;96378.28;107895;1270;25296;-78
2022/09/10 04:33:54;;;;;;;4.20;3.60;;;;;;;14.03;94.74;96376.27;107957;1270;22660;-78
2022/09/10 04:36:25;;;;;;;5.00;3.50;;;;;;;13.94;95.13;96376.24;107873;1270;22638;-78
2022/09/10 04:38:57;;;;;;;5.10;4.20;;;;;;;13.89;95.60;96376.63;107788;1270;32155;-78
2022/09/10 04:41:28;;;;;;;5.20;4.10;;;;;;;13.86;96.15;96372.77;107891;1270;22518;-78
2022/09/10 04:44:00;;;;;;;6.40;4.30;;;;;;;13.86;96.29;96369.63;107948;1271;24228;-78
2022/09/10 04:46:32;;;;;;;4.70;3.90;;;;;;;13.86;96.59;96368.44;107870;1270;25248;-78
2022/09/10 04:49:04;;;;;;;6.80;3.60;;;;;;;13.88;96.59;96370.05;107836;1270;26130;-78
2022/09/10 04:51:35;;;;;;;6.00;3.70;;;;;;;13.94;96.72;96369.64;107876;1270;23506;-78
2022/09/10 04:54:07;;;;;;;4.30;3.10;;;;;;;14.03;96.65;96368.97;107898;1271;22567;-78
2022/09/10 04:56:39;;;;;;;2.90;2.50;;;;;;;14.11;96.54;96368.96;107881;1270;22529;-78
2022/09/10 04:59:10;;;;;;;3.40;2.80;;;;;;;14.10;96.18;96360.39;107840;1270;26293;-78
2022/09/10 05:01:42;;;;;;;3.30;2.90;;;;;;;14.08;95.95;96356.97;107866;1270;22521;-78
2022/09/10 05:04:13;;;;;;;3.20;2.90;;;;;;;14.08;96.07;96358.89;107885;1270;25327;-78
2022/09/10 05:06:46;;;;;;;3.30;3.00;;;;;;;14.08;96.18;96355.27;107868;1270;22560;-78
2022/09/10 05:09:18;;;;;;;4.60;2.80;;;;;;;14.08;96.28;96352.17;107792;1271;31710;-78
2022/09/10 05:11:50;;;;;;;3.90;3.20;;;;;;;14.11;96.33;96350.61;107916;1270;25245;-78
2022/09/10 05:14:22;;;;;;;3.30;3.00;;;;;;;14.11;96.32;96346.76;107888;1270;22535;-78
2022/09/10 05:16:54;;;;;;;4.30;2.80;;;;;;;14.14;96.41;96344.54;107900;1270;22539;-78
2022/09/10 05:19:25;;;;;;;2.80;2.60;;;;;;;14.21;96.43;96339.71;107858;1270;28161;-78
2022/09/10 05:21:56;;;;;;;3.20;2.60;;;;;;;14.28;96.34;96342.65;107893;1270;22535;-78
2022/09/10 05:24:27;;;;;;;3.20;2.40;;;;;;;14.34;96.35;96343.27;107938;1270;22540;-78
2022/09/10 05:26:58;;;;;;;2.70;2.50;;;;;;;14.37;96.03;96344.33;107877;1270;22585;-78
2022/09/10 05:29:30;;;;;;;2.60;2.40;;;;;;;14.37;95.84;96341.66;107856;1270;27009;-78
2022/09/10 05:32:01;;;;;;;3.30;2.20;;;;;;;14.37;95.74;96338.40;107938;1270;24239;-78
2022/09/10 05:34:33;;;;;;;4.00;2.00;;;;;;;14.37;95.62;96344.36;107910;1270;23875;-78
2022/09/10 05:37:04;;;;;;;2.80;2.10;;;;;;;14.39;95.62;96346.34;107920;1270;22555;-78
2022/09/10 05:39:36;;;;;;;4.10;2.20;;;;;;;14.37;95.49;96347.59;107810;1270;29699;-78
2022/09/10 05:42:08;;;;;;;3.30;2.90;;;;;;;14.34;95.61;96348.66;107890;1270;25239;-78
2022/09/10 05:44:40;;;;;;;4.50;2.70;;;;;;;14.34;95.82;96351.10;107891;1270;22522;-80
2022/09/10 05:47:11;;;;;;;3.40;3.10;;;;;;;14.34;95.87;96349.50;107894;1270;22659;-79
2022/09/10 05:49:45;;;;;;;3.30;2.80;;;;;;;14.40;96.36;96346.85;107996;1270;31402;-79
2022/09/10 05:52:18;;;;;;;3.10;2.80;;;;;;;14.49;96.45;96343.31;108077;1270;22548;-79
2022/09/10 05:54:50;;;;;;;3.30;3.00;;;;;;;14.48;96.06;96342.73;108022;1270;22550;-78
2022/09/10 05:57:22;;;;;;;3.20;2.90;;;;;;;14.46;95.87;96339.70;108056;1271;22546;-78
2022/09/10 05:59:53;;;;;;;3.80;3.50;;;;;;;14.42;96.00;96338.75;107932;1270;31816;-78
2022/09/10 06:02:26;;;;;;;4.30;3.80;;;;;;;14.38;96.28;96340.02;108027;1271;27614;-78
2022/09/10 06:04:59;;;;;;;4.20;3.80;;;;;;;14.36;96.66;96340.09;107984;1270;22693;-79
2022/09/10 06:07:31;;;;;;;4.30;3.90;;;;;;;14.37;96.94;96339.06;107953;1270;25486;-78
2022/09/10 06:10:04;;;;;;;4.10;3.50;;;;;;;14.37;97.05;96336.80;107820;1270;35270;-78
2022/09/10 06:12:36;;;;;;;3.80;3.40;;;;;;;14.41;97.14;96337.48;107935;1270;22534;-78
2022/09/10 06:15:09;;;;;;;3.80;2.50;;;;;;;14.42;97.01;96344.81;107974;1271;22686;-78
2022/09/10 06:17:42;;;;;;;3.10;2.80;;;;;;;14.46;96.71;96347.29;108007;1270;23004;-78
2022/09/10 06:20:15;;;;;;;2.80;2.50;;;;;;;14.46;96.51;96347.85;107867;1270;27273;-78
2022/09/10 06:22:50;;;;;;;4.80;3.10;;;;;;;14.45;96.39;96343.99;107926;1270;22614;-78
2022/09/10 06:25:22;;;;;;;3.60;3.00;;;;;;;14.45;96.41;96343.11;107904;1270;22561;-78
2022/09/10 06:27:55;;;;;;;3.10;2.50;;;;;;;14.44;96.38;96342.64;107936;1270;22522;-78
2022/09/10 06:30:27;;;;;;;2.60;2.40;;;;;;;14.45;96.47;96342.39;107899;1270;26804;-78
2022/09/10 06:32:58;;;;;;;3.10;2.20;;;;;;;14.47;96.46;96345.00;107900;1270;22536;-78
2022/09/10 06:35:31;;;;;;;2.60;2.40;;;;;;;14.50;96.46;96343.55;108000;1270;23095;-78
2022/09/10 06:38:02;;;;;;;4.70;2.30;;;;;;;14.52;96.35;96342.75;107965;1269;25497;-78
2022/09/10 06:40:34;;;;;;;3.20;2.20;;;;;;;14.55;96.32;96347.80;107888;1270;23872;-78
2022/09/10 06:43:07;;;;;;;2.80;2.40;;;;;;;14.62;96.32;96347.27;107943;1270;22602;-78
2022/09/10 06:45:43;;;;;;;2.80;2.50;;;;;;;14.61;96.05;96351.29;108011;1271;22559;-78
2022/09/10 06:48:17;;;;;;;3.00;2.80;;;;;;;14.60;96.17;96351.91;107989;1270;24309;-78
2022/09/10 06:50:57;;;;;;;4.30;2.80;;;;;;;14.61;96.32;96354.87;107879;1270;22724;-79
2022/09/10 06:53:32;;;;;;;3.10;2.60;;;;;;;14.66;96.40;96356.55;107995;1270;22561;-78
2022/09/10 06:56:04;;;;;;;3.20;2.90;;;;;;;14.67;96.17;96356.48;107915;1270;22527;-78
2022/09/10 06:58:37;;;;;;;3.70;3.30;;;;;;;14.69;96.46;96350.76;107848;1270;30971;-78
2022/09/10 07:01:11;;;;;;;5.50;3.80;;;;;;;14.74;96.47;96354.23;107974;1270;25242;-78
2022/09/10 07:03:43;;;;;;;4.00;3.60;;;;;;;14.77;96.36;96348.51;107929;1270;24117;-78
2022/09/10 07:06:18;;;;;;;5.40;4.30;;;;;;;14.79;96.15;96349.73;107967;1270;22665;-78
2022/09/10 07:08:53;;;;;;;3.70;3.30;;;;;;;14.87;96.39;96349.75;107947;1270;28416;-78
2022/09/10 07:11:26;;;;;;;5.50;4.40;;;;;;;14.99;96.48;96349.30;106751;1270;1592719;-78
2022/09/10 07:14:00;;;;;;;5.00;4.50;;;;;;;15.08;96.53;96343.63;107928;1270;22547;-79
2022/09/10 07:16:32;;;;;;;4.40;4.00;;;;;;;15.23;96.67;96346.43;107973;1269;22747;-79
2022/09/10 07:19:03;;;;;;;5.90;4.70;;;;;;;15.38;96.35;96345.17;107883;1270;29257;-78
2022/09/10 07:21:36;;;;;;;6.10;4.30;;;;;;;15.45;95.73;96344.34;107943;1270;22561;-78
2022/09/10 07:24:10;;;;;;;4.30;3.80;;;;;;;15.51;95.61;96347.56;107921;1270;22543;-78
2022/09/10 07:26:42;;;;;;;5.50;4.20;;;;;;;15.64;95.47;96345.33;107930;1270;22541;-79
2022/09/10 07:29:17;;;;;;;5.10;4.50;;;;;;;15.74;95.32;96340.73;107909;1270;34396;-78
2022/09/10 07:31:50;;;;;;;6.00;5.00;;;;;;;15.83;95.46;96345.52;107995;1270;24234;-78
2022/09/10 07:34:23;;;;;;;6.80;6.10;;;;;;;15.92;95.63;96351.41;107944;1270;22522;-78
2022/09/10 07:36:55;;;;;;;6.80;6.10;;;;;;;16.00;95.15;96345.79;107920;1270;23881;-78
2022/09/10 07:39:29;;;;;;;7.80;6.80;;;;;;;16.07;94.98;96347.06;107900;1270;28184;-78
2022/09/10 07:42:01;;;;;;;7.70;6.80;;;;;;;16.21;94.94;96347.63;107993;1271;22539;-78
2022/09/10 07:44:33;;;;;;;6.80;6.10;;;;;;;16.35;95.03;96348.41;107942;1270;23453;-78
2022/09/10 07:47:04;;;;;;;8.00;5.90;;;;;;;16.41;94.98;96347.95;107948;1270;22550;-78
2022/09/10 07:49:37;;;;;;;6.70;6.00;;;;;;;16.48;95.14;96350.70;107928;1270;29634;-78
2022/09/10 07:52:09;;;;;;;7.40;6.70;;;;;;;16.55;95.01;96349.92;107937;1270;25446;-78
2022/09/10 07:54:40;;;;;;;8.30;7.40;;;;;;;16.66;95.29;96352.72;107906;1270;22531;-78
2022/09/10 07:57:12;;;;;;;7.20;6.50;;;;;;;16.72;95.04;96357.27;107938;1270;23237;-78
2022/09/10 07:59:44;;;;;;;9.00;7.30;;;;;;;16.71;94.40;96354.15;107925;1270;29088;-78
2022/09/10 08:02:16;;;;;;;7.50;6.60;;;;;;;16.63;94.08;96351.31;107961;1270;25424;-79
2022/09/10 08:04:48;;;;;;;8.20;7.20;;;;;;;16.65;94.15;96350.99;107951;1270;22532;-78
2022/09/10 08:07:20;;;;;;;8.00;7.20;;;;;;;16.73;94.47;96354.15;107981;1270;23597;-78
2022/09/10 08:09:51;;;;;;;7.80;6.80;;;;;;;16.82;94.47;96354.75;107893;1270;29571;-78
2022/09/10 08:12:24;;;;;;;8.30;7.50;;;;;;;16.88;94.16;96355.48;107913;1270;22628;-78
2022/09/10 08:14:56;;;;;;;7.60;6.70;;;;;;;16.87;93.54;96354.15;107957;1270;22541;-78
2022/09/10 08:17:28;;;;;;;10.80;7.80;;;;;;;16.82;93.13;96356.05;107914;1270;25210;-79
2022/09/10 08:20:00;;;;;;;8.90;8.00;;;;;;;16.82;93.48;96355.33;107896;1270;31523;-79
2022/09/10 08:22:33;;;;;;;8.10;7.20;;;;;;;16.89;93.80;96349.59;107914;1270;22563;-79
2022/09/10 08:25:06;;;;;;;9.80;8.80;;;;;;;16.95;93.84;96350.41;107977;1270;22528;-79
2022/09/10 08:27:41;;;;;;;9.50;8.60;;;;;;;16.89;93.21;96351.78;108025;1270;25250;-79
2022/09/10 08:30:16;;;;;;;12.30;8.40;;;;;;;16.77;92.98;96355.70;107924;1270;30883;-78
2022/09/10 08:32:49;;;;;;;9.20;8.20;;;;;;;16.72;93.16;96358.30;107932;1270;22684;-78
2022/09/10 08:35:22;;;;;;;9.70;8.70;;;;;;;16.73;93.26;96356.50;107981;1271;25258;-79
2022/09/10 08:37:56;;;;;;;9.20;8.30;;;;;;;16.72;93.25;96352.35;108026;1270;22809;-79
2022/09/10 08:40:28;;;;;;;10.60;9.50;;;;;;;16.71;93.18;96350.16;107900;1270;24732;-79
2022/09/10 08:43:01;;;;;;;9.80;8.90;;;;;;;16.67;93.02;96350.45;107922;1270;24051;-79
2022/09/10 08:45:38;;;;;;;9.30;8.30;;;;;;;16.62;93.12;96345.77;107961;1270;24503;-79
2022/09/10 08:48:15;;;;;;;11.10;9.10;;;;;;;16.64;93.33;96346.84;107934;1270;22560;-78
2022/09/10 08:50:56;;;;;;;9.80;8.80;;;;;;;16.70;93.32;96345.41;107937;1270;25404;-79
2022/09/10 08:53:33;;;;;;;11.50;10.20;;;;;;;16.78;93.29;96345.72;107998;1270;25357;-78
2022/09/10 08:56:11;;;;;;;11.20;10.00;;;;;;;16.79;92.83;96347.98;107994;1270;24274;-79
2022/09/10 08:58:47;;;;;;;12.60;11.30;;;;;;;16.86;93.12;96348.23;107880;1270;29451;-78
2022/09/10 09:01:31;;;;;;;13.00;11.70;;;;;;;16.96;92.98;96349.06;107921;1270;22521;-79
2022/09/10 09:04:09;;;;;;;14.20;12.70;;;;;;;16.97;92.68;96346.75;108008;1270;22530;-78
2022/09/10 09:06:50;;;;;;;14.90;13.50;;;;;;;16.98;92.64;96341.34;107964;1270;22715;-79
2022/09/10 09:09:22;;;;;;;14.80;13.40;;;;;;;16.95;91.74;96342.29;107922;1270;29806;-79
2022/09/10 09:12:01;;;;;;;16.60;15.00;;;;;;;16.67;90.99;96341.66;107892;1270;25645;-79
2022/09/10 09:14:50;;;;;;;16.40;14.70;;;;;;;16.40;91.68;96342.44;107931;1270;25270;-79
2022/09/10 09:17:42;;;;;;;15.90;14.20;;;;;;;16.29;92.35;96345.66;107997;1271;25521;-79
2022/09/10 09:20:18;;;;;;;15.20;13.70;;;;;;;16.21;92.80;96345.16;107908;1270;28923;-79
2022/09/10 09:22:54;;;;;;;15.40;13.90;;;;;;;16.06;92.96;96344.58;107990;1270;23044;-79
2022/09/10 09:25:30;;;;;;;15.00;13.30;;;;;;;15.97;93.59;96346.34;107945;1270;24321;-79
2022/09/10 09:28:04;;;;;;;14.60;13.10;;;;;;;15.89;93.88;96345.64;107968;1270;22605;-79
2022/09/10 09:30:48;;;;;;;13.60;12.30;;;;;;;15.86;94.15;96340.45;107811;1270;36858;-78
2022/09/10 09:33:24;;;;;;;14.70;13.30;;;;;;;15.85;94.31;96341.48;108001;1269;22527;-79
2022/09/10 09:36:00;;;;;;;14.40;12.90;;;;;;;15.87;94.85;96346.52;108000;1270;22521;-79
2022/09/10 09:38:36;;;;;;;16.10;14.60;;;;;;;15.87;95.08;96345.16;107940;1270;31332;-78
2022/09/10 09:41:16;;;;;;;18.10;16.30;;;;;;;15.82;95.11;96345.65;107914;1270;24015;-79
2022/09/10 09:43:57;;;;;;;14.80;13.30;;;;;;;15.83;95.69;96345.15;108008;1270;26447;-79
2022/09/10 09:46:29;;;;;;;12.30;11.10;;;;;;;15.84;95.38;96339.14;107933;1270;24146;-79
2022/09/10 09:49:03;;;;;;;9.80;8.80;;;;;;;15.84;95.54;96341.80;107904;1270;37365;-79
2022/09/10 09:51:35;;;;;;;10.20;9.30;;;;;;;15.83;95.68;96337.81;107979;1270;22547;-79
2022/09/10 09:54:14;;;;;;;8.90;8.00;;;;;;;15.85;96.01;96335.83;107953;1270;23328;-79
2022/09/10 09:56:50;;;;;;;8.30;7.40;;;;;;;15.90;95.98;96331.25;107879;1270;22560;-79
2022/09/10 09:59:29;;;;;;;7.80;7.00;;;;;;;15.97;95.79;96333.00;107964;1270;30839;-78
2022/09/10 10:02:13;;;;;;;6.20;5.60;;;;;;;16.05;95.58;96332.48;107985;1270;25292;-79
2022/09/10 10:04:56;;;;;;;5.70;5.20;;;;;;;16.11;94.94;96327.96;107984;1269;22536;-79
2022/09/10 10:07:32;;;;;;;6.60;5.80;;;;;;;16.13;94.68;96326.21;107982;1270;25358;-79
2022/09/10 10:10:06;;;;;;;5.50;5.00;;;;;;;16.19;94.84;96329.35;107903;1270;32071;-79
2022/09/10 10:12:51;;;;;;;5.50;5.00;;;;;;;16.33;95.35;96330.45;107993;1270;22626;-79
2022/09/10 10:15:40;;;;;;;5.20;4.70;;;;;;;16.32;94.29;96330.64;107966;1271;25455;-79
2022/09/10 10:18:31;;;;;;;4.80;4.30;;;;;;;16.30;93.96;96329.64;107982;1269;23310;-79
2022/09/10 10:21:18;;;;;;;5.30;4.80;;;;;;;16.33;94.07;96328.56;108022;1270;24249;-79
2022/09/10 10:23:50;;;;;;;6.00;5.40;;;;;;;16.49;94.10;96320.71;107975;1270;24319;-79
2022/09/10 10:26:32;;;;;;;5.90;5.30;;;;;;;16.62;93.85;96322.13;108004;1269;22522;-79
2022/09/10 10:29:07;;;;;;;6.80;5.70;;;;;;;16.83;93.63;96324.33;107884;1270;37314;-79
2022/09/10 10:31:42;;;;;;;5.10;4.60;;;;;;;16.95;93.08;96320.34;107953;1270;23165;-79
2022/09/10 10:34:46;;;;;;;5.60;5.10;;;;;;;17.14;93.39;96319.35;107977;1271;22547;-79
2022/09/10 10:37:27;;;;;;;5.00;4.50;;;;;;;17.34;91.98;96319.79;107938;1270;22761;-79
2022/09/10 10:40:20;;;;;;;6.00;5.10;;;;;;;17.26;91.21;96319.63;107867;1270;24394;-79
2022/09/10 10:42:59;;;;;;;4.30;4.00;;;;;;;17.33;90.74;96318.36;107885;1270;22635;-79
2022/09/10 10:45:47;;;;;;;4.30;3.90;;;;;;;17.28;89.51;96312.52;107976;1270;24227;-79
2022/09/10 10:48:32;;;;;;;4.00;3.60;;;;;;;17.21;89.21;96315.70;107836;1270;28777;-77
2022/09/10 10:51:17;;;;;;;5.10;4.50;;;;;;;17.04;88.74;96317.00;107926;1270;22536;-79
2022/09/10 10:54:06;;;;;;;6.40;3.90;;;;;;;16.98;89.35;96318.61;107964;1270;22553;-79
2022/09/10 10:56:41;;;;;;;6.30;4.00;;;;;;;17.00;89.50;96321.72;107920;1270;22661;-79
2022/09/10 10:59:28;;;;;;;8.60;4.10;;;;;;;16.97;89.43;96317.84;107864;1270;36734;-79
2022/09/10 11:02:20;;;;;;;4.10;3.20;;;;;;;16.96;89.19;96324.12;108031;1270;25376;-79
2022/09/10 11:04:54;;;;;;;3.30;2.70;;;;;;;16.88;88.35;96324.58;107985;1270;24387;-79
2022/09/10 11:07:33;;;;;;;3.40;3.00;;;;;;;16.81;88.60;96322.80;107955;1270;22634;-79
2022/09/10 11:10:12;;;;;;;3.00;2.70;;;;;;;16.83;88.85;96326.00;107911;1270;23768;-79
2022/09/10 11:12:49;;;;;;;4.00;3.00;;;;;;;16.88;89.29;96330.13;107955;1270;22537;-79
2022/09/10 11:15:29;;;;;;;3.50;3.10;;;;;;;16.95;88.83;96324.85;107957;1270;22535;-79
2022/09/10 11:18:12;;;;;;;5.00;3.20;;;;;;;16.87;87.72;96323.70;108001;1270;22521;-79
2022/09/10 11:20:49;;;;;;;4.80;3.40;;;;;;;16.83;87.98;96330.46;107957;1270;24287;-79
2022/09/10 11:23:28;;;;;;;3.10;2.80;;;;;;;16.94;88.06;96329.04;107965;1269;24225;-79
2022/09/10 11:26:06;;;;;;;3.10;2.80;;;;;;;17.08;87.92;96327.70;107921;1270;25257;-78
2022/09/10 11:28:46;;;;;;;3.70;2.80;;;;;;;17.27;88.14;96323.88;107893;1270;34755;-79
2022/09/10 11:31:25;;;;;;;5.00;2.80;;;;;;;17.65;88.32;96325.77;108019;1270;25242;-78
2022/09/10 11:34:03;;;;;;;3.20;2.80;;;;;;;17.91;86.59;96319.19;107985;1269;22571;-79
2022/09/10 11:36:42;;;;;;;2.60;2.40;;;;;;;17.92;85.73;96319.81;107970;1270;22541;-79
2022/09/10 11:39:22;;;;;;;4.00;2.70;;;;;;;18.04;85.87;96314.42;107890;1270;30671;-79
2022/09/10 11:41:58;;;;;;;2.80;2.50;;;;;;;17.98;84.05;96317.48;107939;1270;24247;-79
2022/09/10 11:44:52;;;;;;;3.60;2.60;;;;;;;18.09;85.33;96319.55;107968;1270;23844;-79
2022/09/10 11:47:30;;;;;;;2.90;2.60;;;;;;;18.36;85.67;96321.37;107977;1270;25457;-79
2022/09/10 11:50:06;;;;;;;4.10;3.00;;;;;;;18.46;85.15;96322.89;107873;1270;34761;-79
2022/09/10 11:52:39;;;;;;;4.00;3.50;;;;;;;18.51;85.45;96326.96;108004;1270;24279;-79
2022/09/10 11:55:16;;;;;;;3.80;3.10;;;;;;;18.41;84.98;96324.34;107914;1270;22572;-79
2022/09/10 11:58:03;;;;;;;2.40;2.20;;;;;;;18.22;84.52;96318.61;107932;1269;25438;-79
2022/09/10 12:00:41;;;;;;;2.80;2.10;;;;;;;18.12;84.44;96316.13;107899;1269;26011;-79